createdAt,value
2023-01-21T00:01:05.657Z,27.35
2023-01-21T00:03:32.959Z,28.92
2023-01-21T00:06:00.114Z,26.52
2023-01-21T00:08:27.777Z,28.25
2023-01-21T00:10:54.784Z,32.40
2023-01-21T00:13:24.745Z,27.10
2023-01-21T00:15:54.935Z,32.92
2023-01-21T00:18:22.089Z,27.50
2023-01-21T00:20:48.885Z,28.63
2023-01-21T00:23:15.778Z,27.30
2023-01-21T00:25:43.220Z,28.77
2023-01-21T00:28:10.201Z,27.08
2023-01-21T00:30:37.204Z,27.20
2023-01-21T00:33:04.439Z,28.23
2023-01-21T00:35:31.625Z,29.65
2023-01-21T00:37:58.521Z,31.20
2023-01-21T00:40:26.073Z,29.95
2023-01-21T00:42:53.007Z,26.55
2023-01-21T00:45:19.973Z,27.20
2023-01-21T00:47:47.351Z,27.80
2023-01-21T00:50:14.427Z,30.27
2023-01-21T00:52:41.358Z,30.08
2023-01-21T00:55:08.782Z,24.67
2023-01-21T00:57:35.671Z,26.15
2023-01-21T01:00:02.691Z,28.35
2023-01-21T01:02:29.535Z,28.13
2023-01-21T01:04:56.732Z,27.77
2023-01-21T01:07:23.559Z,26.88
2023-01-21T01:09:50.302Z,26.95
2023-01-21T01:12:17.229Z,28.80
2023-01-21T01:14:44.244Z,32.95
2023-01-21T01:17:11.109Z,29.40
2023-01-21T01:19:38.118Z,26.80
2023-01-21T01:22:04.896Z,31.05
2023-01-21T01:24:32.066Z,30.40
2023-01-21T01:26:59.006Z,31.73
2023-01-21T01:29:26.149Z,30.23
2023-01-21T01:31:53.162Z,30.63
2023-01-21T01:34:20.130Z,31.30
2023-01-21T01:36:48.613Z,34.22
2023-01-21T01:39:15.458Z,31.15
2023-01-21T01:41:44.737Z,30.90
2023-01-21T01:44:49.258Z,31.73
2023-01-21T01:47:16.314Z,36.60
2023-01-21T01:49:43.254Z,37.67
2023-01-21T01:52:12.131Z,34.80
2023-01-21T01:54:48.155Z,36.47
2023-01-21T01:57:18.293Z,35.15
2023-01-21T01:59:45.818Z,36.75
2023-01-21T02:02:16.741Z,36.47
2023-01-21T02:04:51.393Z,35.58
2023-01-21T02:07:20.686Z,38.10
2023-01-21T02:09:47.558Z,37.75
2023-01-21T02:12:20.156Z,41.17
2023-01-21T02:14:48.194Z,36.85
2023-01-21T02:17:21.199Z,36.55
2023-01-21T02:20:10.518Z,38.65
2023-01-21T02:23:08.768Z,36.53
2023-01-21T02:25:57.337Z,42.08
2023-01-21T02:28:39.472Z,41.13
2023-01-21T02:31:24.545Z,36.55
2023-01-21T02:37:47.766Z,36.38
2023-01-21T02:40:27.439Z,35.97
2023-01-21T02:43:24.916Z,36.90
2023-01-21T02:48:35.070Z,33.65
2023-01-21T02:51:02.287Z,34.97
2023-01-21T02:53:32.058Z,32.70
2023-01-21T02:56:09.824Z,31.77
2023-01-21T02:58:41.154Z,31.88
2023-01-21T03:01:20.515Z,30.25
2023-01-21T03:04:19.706Z,32.13
2023-01-21T03:06:50.583Z,30.48
2023-01-21T03:09:27.035Z,29.52
2023-01-21T03:14:46.399Z,31.85
2023-01-21T03:17:38.017Z,34.33
2023-01-21T03:20:38.154Z,28.83
2023-01-21T03:23:13.016Z,30.23
2023-01-21T03:25:41.412Z,30.98
2023-01-21T03:28:13.674Z,29.50
2023-01-21T03:30:43.398Z,30.35
2023-01-21T03:36:11.843Z,29.88
2023-01-21T03:38:49.748Z,32.63
2023-01-21T03:41:27.421Z,32.05
2023-01-21T03:43:54.505Z,29.90
2023-01-21T03:46:56.508Z,31.20
2023-01-21T03:50:06.750Z,28.98
2023-01-21T03:52:33.758Z,29.08
2023-01-21T03:55:00.732Z,29.38
2023-01-21T03:57:27.590Z,29.92
2023-01-21T03:59:55.062Z,29.55
2023-01-21T04:02:22.148Z,26.75
2023-01-21T04:04:49.361Z,26.27
2023-01-21T04:07:16.721Z,26.42
2023-01-21T04:09:43.775Z,28.50
2023-01-21T04:12:11.511Z,28.00
2023-01-21T04:14:38.573Z,26.02
2023-01-21T04:17:06.053Z,27.63
2023-01-21T04:19:33.035Z,25.70
2023-01-21T04:21:59.925Z,25.63
2023-01-21T04:24:27.066Z,25.33
2023-01-21T04:26:54.188Z,24.10
2023-01-21T04:29:21.043Z,24.38
2023-01-21T04:31:48.464Z,23.27
2023-01-21T04:34:16.762Z,25.38
2023-01-21T04:36:43.821Z,27.38
2023-01-21T04:39:11.458Z,27.65
2023-01-21T04:41:38.443Z,28.95
2023-01-21T04:44:05.717Z,23.17
2023-01-21T04:46:32.671Z,23.45
2023-01-21T04:48:59.499Z,28.95
2023-01-21T04:51:26.484Z,28.75
2023-01-21T04:53:53.459Z,26.25
2023-01-21T04:56:20.269Z,25.27
2023-01-21T04:58:47.162Z,25.90
2023-01-21T05:01:13.951Z,27.80
2023-01-21T05:03:40.893Z,27.98
2023-01-21T05:06:07.878Z,23.20
2023-01-21T05:08:34.795Z,26.20
2023-01-21T05:11:01.736Z,25.33
2023-01-21T05:13:28.593Z,28.73
2023-01-21T05:15:55.983Z,24.05
2023-01-21T05:18:22.920Z,24.63
2023-01-21T05:20:49.766Z,25.60
2023-01-21T05:23:16.575Z,27.58
2023-01-21T05:25:43.476Z,25.25
2023-01-21T05:28:10.365Z,25.55
2023-01-21T05:30:40.170Z,22.65
2023-01-21T05:33:07.599Z,27.80
2023-01-21T05:35:40.822Z,23.88
2023-01-21T05:38:07.680Z,25.27
2023-01-21T05:40:34.608Z,24.45
2023-01-21T05:43:01.526Z,22.63
2023-01-21T05:45:28.442Z,23.58
2023-01-21T05:47:55.230Z,23.08
2023-01-21T05:50:22.119Z,21.00
2023-01-21T05:52:49.013Z,24.95
2023-01-21T05:55:16.120Z,24.05
2023-01-21T05:57:43.339Z,22.98
2023-01-21T06:00:10.673Z,26.55
2023-01-21T06:02:37.457Z,22.85
2023-01-21T06:05:04.571Z,21.50
2023-01-21T06:07:31.458Z,23.10
2023-01-21T06:09:58.406Z,23.60
2023-01-21T06:12:25.251Z,24.17
2023-01-21T06:14:52.009Z,23.90
2023-01-21T06:17:18.706Z,22.70
2023-01-21T06:19:45.583Z,22.42
2023-01-21T06:22:16.711Z,22.42
2023-01-21T06:24:43.860Z,26.27
2023-01-21T06:27:11.305Z,24.73
2023-01-21T06:29:38.026Z,28.88
2023-01-21T06:32:05.135Z,26.20
2023-01-21T06:34:31.996Z,27.20
2023-01-21T06:49:12.757Z,20.65
2023-01-21T06:51:39.583Z,24.13
2023-01-21T06:54:06.711Z,22.02
2023-01-21T06:56:33.443Z,28.52
2023-01-21T06:59:00.115Z,23.55
2023-01-21T07:01:26.968Z,21.52
2023-01-21T07:03:53.862Z,23.88
2023-01-21T07:06:22.381Z,20.45
2023-01-21T07:08:49.098Z,23.20
2023-01-21T07:11:15.892Z,23.58
2023-01-21T07:13:42.649Z,24.52
2023-01-21T07:16:09.460Z,21.73
2023-01-21T07:18:36.271Z,19.73
2023-01-21T07:21:03.094Z,25.77
2023-01-21T07:23:30.362Z,23.80
2023-01-21T07:25:57.979Z,23.85
2023-01-21T07:28:24.828Z,22.15
2023-01-21T07:30:51.681Z,22.10
2023-01-21T07:33:18.440Z,21.73
2023-01-21T07:35:45.217Z,23.63
2023-01-21T07:38:11.971Z,21.52
2023-01-21T07:40:38.668Z,20.77
2023-01-21T07:43:05.581Z,22.25
2023-01-21T07:45:32.567Z,23.58
2023-01-21T07:47:59.494Z,20.20
2023-01-21T07:50:26.614Z,23.00
2023-01-21T07:52:56.532Z,22.80
2023-01-21T07:55:23.259Z,22.17
2023-01-21T07:57:49.980Z,25.58
2023-01-21T08:00:17.622Z,18.40
2023-01-21T08:02:45.122Z,22.08
2023-01-21T08:05:12.338Z,20.02
2023-01-21T08:07:39.185Z,19.27
2023-01-21T08:10:06.302Z,23.83
2023-01-21T08:12:33.757Z,21.40
2023-01-21T08:15:01.054Z,20.27
2023-01-21T08:17:27.992Z,25.98
2023-01-21T08:19:55.013Z,22.38
2023-01-21T08:22:21.801Z,21.33
2023-01-21T08:24:48.630Z,19.98
2023-01-21T08:27:15.345Z,22.65
2023-01-21T08:29:42.095Z,25.48
2023-01-21T08:32:09.091Z,23.88
2023-01-21T08:34:36.112Z,22.98
2023-01-21T08:37:03.269Z,25.92
2023-01-21T08:39:30.298Z,25.85
2023-01-21T08:41:57.161Z,22.67
2023-01-21T08:44:24.018Z,26.25
2023-01-21T08:46:50.835Z,24.88
2023-01-21T08:49:17.647Z,24.42
2023-01-21T08:51:44.645Z,23.50
2023-01-21T08:54:11.581Z,24.30
2023-01-21T08:56:38.499Z,26.00
2023-01-21T08:59:05.768Z,23.70
2023-01-21T09:01:33.532Z,26.65
2023-01-21T09:04:01.346Z,27.85
2023-01-21T09:06:29.755Z,26.58
2023-01-21T09:08:57.036Z,25.42
2023-01-21T09:11:24.489Z,27.75
2023-01-21T09:13:51.273Z,26.17
2023-01-21T09:16:23.005Z,30.92
2023-01-21T09:18:50.434Z,25.15
2023-01-21T09:21:17.494Z,27.73
2023-01-21T09:23:45.671Z,22.60
2023-01-21T09:26:21.215Z,23.65
2023-01-21T09:28:53.710Z,23.50
2023-01-21T09:31:25.233Z,19.85
2023-01-21T09:34:00.751Z,18.73
2023-01-21T09:36:31.098Z,19.67
2023-01-21T09:38:58.693Z,20.80
2023-01-21T09:41:28.310Z,17.45
2023-01-21T09:44:03.403Z,18.52
2023-01-21T09:46:35.136Z,16.17
2023-01-21T09:49:05.468Z,17.58
2023-01-21T09:51:57.395Z,17.30
2023-01-21T09:54:27.517Z,22.73
2023-01-21T09:57:22.770Z,17.15
2023-01-21T10:00:08.161Z,16.63
2023-01-21T10:02:54.817Z,18.83
2023-01-21T10:05:24.628Z,18.35
2023-01-21T10:08:10.117Z,16.17
2023-01-21T10:11:01.129Z,19.33
2023-01-21T10:14:22.010Z,15.13
2023-01-21T10:16:57.779Z,14.20
2023-01-21T10:19:36.942Z,14.13
2023-01-21T10:22:18.615Z,14.50
2023-01-21T10:25:10.587Z,17.25
2023-01-21T10:27:40.097Z,16.70
2023-01-21T10:30:22.107Z,15.93
2023-01-21T10:32:54.206Z,16.70
2023-01-21T10:35:41.930Z,17.55
2023-01-21T10:38:40.417Z,18.38
2023-01-21T10:41:32.349Z,16.23
2023-01-21T10:44:09.695Z,17.05
2023-01-21T10:47:04.326Z,16.63
2023-01-21T10:49:53.251Z,14.90
2023-01-21T10:52:27.659Z,15.98
2023-01-21T10:54:57.675Z,14.32
2023-01-21T10:57:49.069Z,16.63
2023-01-21T11:00:24.471Z,12.55
2023-01-21T11:02:57.131Z,13.07
2023-01-21T11:05:26.434Z,16.65
2023-01-21T11:07:55.600Z,14.48
2023-01-21T11:10:27.154Z,16.23
2023-01-21T11:12:56.082Z,14.43
2023-01-21T11:15:24.669Z,14.90
2023-01-21T11:17:56.686Z,16.20
2023-01-21T11:20:29.919Z,14.23
2023-01-21T11:22:57.375Z,13.98
2023-01-21T11:25:41.133Z,12.98
2023-01-21T11:28:26.735Z,14.85
2023-01-21T11:31:13.853Z,12.82
2023-01-21T11:33:42.675Z,12.60
2023-01-21T11:36:17.542Z,11.95
2023-01-21T11:38:47.414Z,14.02
2023-01-21T11:41:23.172Z,13.65
2023-01-21T11:43:55.693Z,15.60
2023-01-21T11:46:30.679Z,13.55
2023-01-21T11:49:07.295Z,12.80
2023-01-21T11:51:38.911Z,14.00
2023-01-21T11:54:19.910Z,11.98
2023-01-21T11:57:03.060Z,12.73
2023-01-21T11:59:34.466Z,13.25
2023-01-21T12:02:09.863Z,16.95
2023-01-21T12:04:37.297Z,15.57
2023-01-21T12:07:05.517Z,14.45
2023-01-21T12:09:32.587Z,16.40
2023-01-21T12:12:26.304Z,14.85
2023-01-21T12:14:59.317Z,13.38
2023-01-21T12:17:29.209Z,13.07
2023-01-21T12:20:20.998Z,15.13
2023-01-21T12:23:05.833Z,12.00
2023-01-21T12:25:48.411Z,14.38
2023-01-21T12:28:27.018Z,15.93
2023-01-21T12:31:23.973Z,16.67
2023-01-21T12:34:39.819Z,14.95
2023-01-21T12:37:16.437Z,18.48
2023-01-21T12:42:22.949Z,17.88
2023-01-21T12:44:54.264Z,18.75
2023-01-21T12:47:24.048Z,18.63
2023-01-21T12:50:14.115Z,15.95
2023-01-21T12:53:22.634Z,15.52
2023-01-21T12:56:09.210Z,22.38
2023-01-21T12:58:42.842Z,19.17
2023-01-21T13:01:15.016Z,18.77
2023-01-21T13:04:13.763Z,16.40
2023-01-21T13:06:54.606Z,18.50
2023-01-21T13:09:58.586Z,28.38
2023-01-21T13:12:27.595Z,19.27
2023-01-21T13:15:06.460Z,14.93
2023-01-21T13:17:37.362Z,18.48
2023-01-21T13:20:14.818Z,23.92
2023-01-21T13:22:47.824Z,14.32
2023-01-21T13:25:39.425Z,15.98
2023-01-21T13:28:21.659Z,15.80
2023-01-21T13:31:07.008Z,16.30
2023-01-21T13:33:42.782Z,14.80
2023-01-21T13:36:17.484Z,14.47
2023-01-21T13:38:53.640Z,9.18
2023-01-21T13:41:29.356Z,10.23
2023-01-21T13:44:36.377Z,11.50
2023-01-21T13:47:58.682Z,8.63
2023-01-21T13:50:44.272Z,10.30
2023-01-21T13:53:35.571Z,7.57
2023-01-21T13:56:30.054Z,8.98
2023-01-21T13:59:17.487Z,7.82
2023-01-21T14:01:54.446Z,9.57
2023-01-21T14:04:27.587Z,5.75
2023-01-21T14:07:14.539Z,7.82
2023-01-21T14:12:25.815Z,10.95
2023-01-21T14:15:05.229Z,6.57
2023-01-21T14:17:52.656Z,7.85
2023-01-21T14:20:30.853Z,6.63
2023-01-21T14:23:11.900Z,8.25
2023-01-21T14:26:08.090Z,8.07
2023-01-21T14:28:45.244Z,9.15
2023-01-21T14:31:18.878Z,7.72
2023-01-21T14:33:58.704Z,6.55
2023-01-21T14:36:38.611Z,6.78
2023-01-21T14:39:43.325Z,5.07
2023-01-21T14:42:13.436Z,5.32
2023-01-21T14:44:50.364Z,7.60
2023-01-21T14:47:29.157Z,7.20
2023-01-21T14:49:58.624Z,8.20
2023-01-21T14:52:32.208Z,7.28
2023-01-21T14:55:00.406Z,6.70
2023-01-21T14:57:39.401Z,7.68
2023-01-21T15:00:46.349Z,6.78
2023-01-21T15:03:27.125Z,5.00
2023-01-21T15:06:09.376Z,6.07
2023-01-21T15:08:46.114Z,7.03
2023-01-21T15:11:43.901Z,5.53
2023-01-21T15:17:53.377Z,5.45
2023-01-21T15:20:41.703Z,4.93
2023-01-21T15:23:29.441Z,5.93
2023-01-21T15:26:13.913Z,5.65
2023-01-21T15:28:49.476Z,4.45
2023-01-21T15:31:21.878Z,6.38
2023-01-21T15:33:57.665Z,6.65
2023-01-21T15:36:31.057Z,8.38
2023-01-21T15:39:03.602Z,8.27
2023-01-21T15:41:50.850Z,7.50
2023-01-21T15:44:35.586Z,8.07
2023-01-21T15:47:34.675Z,9.68
2023-01-21T15:50:06.013Z,10.85
2023-01-21T16:05:05.606Z,9.10
2023-01-21T16:07:32.330Z,7.45
2023-01-21T16:10:41.024Z,10.70
2023-01-21T16:13:34.569Z,7.40
2023-01-21T16:16:29.255Z,8.93
2023-01-21T16:19:34.331Z,8.57
2023-01-21T16:22:05.147Z,8.48
2023-01-21T16:24:34.024Z,6.90
2023-01-21T16:27:44.802Z,10.18
2023-01-21T16:30:19.758Z,9.43
2023-01-21T16:32:47.241Z,8.32
2023-01-21T16:35:13.988Z,9.70
2023-01-21T16:37:43.622Z,8.48
2023-01-21T16:40:21.240Z,26.50
2023-01-21T16:42:48.176Z,7.75
2023-01-21T16:45:15.291Z,7.75
2023-01-21T16:47:42.883Z,10.35
2023-01-21T16:50:24.999Z,9.98
2023-01-21T16:52:54.470Z,6.80
2023-01-21T16:55:30.875Z,7.57
2023-01-21T17:00:31.691Z,9.23
2023-01-21T17:03:03.683Z,8.77
2023-01-21T17:05:35.375Z,11.90
2023-01-21T17:08:09.560Z,12.48
2023-01-21T17:10:52.181Z,12.93
2023-01-21T17:13:19.552Z,9.05
2023-01-21T17:15:57.646Z,10.00
2023-01-21T17:18:36.705Z,7.85
2023-01-21T17:21:09.059Z,7.75
2023-01-21T17:23:51.189Z,11.35
2023-01-21T17:26:21.672Z,12.23
2023-01-21T17:28:58.088Z,11.57
2023-01-21T17:34:04.424Z,10.23
2023-01-21T17:36:36.294Z,8.05
2023-01-21T17:39:04.677Z,12.00
2023-01-21T17:41:34.695Z,12.20
2023-01-21T17:44:07.867Z,12.15
2023-01-21T17:46:34.985Z,26.75
2023-01-21T17:49:08.734Z,13.60
2023-01-21T17:51:35.837Z,14.27
2023-01-21T17:54:05.446Z,13.02
2023-01-21T17:56:41.405Z,13.88
2023-01-21T17:59:38.332Z,13.82
2023-01-21T18:02:17.537Z,11.98
2023-01-21T18:04:44.565Z,17.17
2023-01-21T18:07:30.025Z,10.43
2023-01-21T18:10:02.742Z,10.95
2023-01-21T18:12:29.728Z,12.25
2023-01-21T18:14:56.706Z,16.55
2023-01-21T18:17:25.219Z,12.10
2023-01-21T18:19:52.452Z,17.05
2023-01-21T18:22:28.287Z,13.13
2023-01-21T18:24:57.862Z,11.27
2023-01-21T18:27:26.117Z,13.05
2023-01-21T18:29:53.619Z,9.13
2023-01-21T18:32:20.664Z,10.40
2023-01-21T18:34:47.424Z,10.30
2023-01-21T18:37:17.414Z,12.00
2023-01-21T18:39:44.324Z,15.77
2023-01-21T18:42:15.366Z,15.50
2023-01-21T18:44:42.976Z,11.93
2023-01-21T18:47:14.588Z,11.27
2023-01-21T18:49:41.926Z,12.10
2023-01-21T18:52:16.932Z,12.38
2023-01-21T18:54:43.978Z,11.75
2023-01-21T18:57:18.134Z,13.85
2023-01-21T19:07:33.953Z,9.52
2023-01-21T19:42:35.699Z,12.43
2023-01-21T19:45:02.566Z,14.25
2023-01-21T19:47:30.224Z,12.35
2023-01-21T19:49:57.288Z,21.77
2023-01-21T19:52:24.326Z,11.48
2023-01-21T19:54:53.355Z,16.63
2023-01-21T19:57:21.663Z,11.27
2023-01-21T19:59:50.743Z,14.25
2023-01-21T20:02:17.577Z,13.27
2023-01-21T20:04:44.782Z,13.55
2023-01-21T20:07:15.962Z,18.77
2023-01-21T20:22:04.618Z,12.02
2023-01-21T20:24:34.287Z,10.05
2023-01-21T20:27:03.091Z,15.57
2023-01-21T20:29:29.988Z,13.90
2023-01-21T20:31:57.354Z,9.88
2023-01-21T20:34:25.321Z,10.05
2023-01-21T20:36:52.703Z,11.23
2023-01-21T20:39:20.550Z,8.85
2023-01-21T20:41:47.568Z,9.00
2023-01-21T20:44:14.346Z,9.38
2023-01-21T20:46:42.069Z,8.00
2023-01-21T20:49:11.644Z,12.02
2023-01-21T20:51:38.443Z,9.75
2023-01-21T20:54:05.338Z,9.65
2023-01-21T20:56:32.944Z,9.00
2023-01-21T20:59:00.124Z,10.23
2023-01-21T21:01:28.237Z,12.85
2023-01-21T21:03:55.193Z,16.67
2023-01-21T21:06:25.805Z,10.52
2023-01-21T21:22:44.915Z,9.15
2023-01-21T21:25:16.855Z,10.30
2023-01-21T21:27:44.569Z,10.00
2023-01-21T21:30:14.038Z,9.52
2023-01-21T21:32:40.972Z,11.65
2023-01-21T21:35:31.019Z,12.70
2023-01-21T21:38:01.035Z,11.20
2023-01-21T21:40:31.357Z,12.55
2023-01-21T21:43:17.268Z,13.48
2023-01-21T21:46:03.135Z,10.65
2023-01-21T21:48:39.778Z,10.73
2023-01-21T21:51:08.877Z,10.18
2023-01-21T21:53:36.954Z,13.10
2023-01-21T21:56:09.240Z,13.68
2023-01-21T21:58:36.479Z,14.80
2023-01-21T22:01:14.029Z,13.35
2023-01-21T22:03:41.548Z,11.82
2023-01-21T22:06:09.338Z,10.75
2023-01-21T22:08:37.789Z,10.98
2023-01-21T22:11:06.938Z,11.32
2023-01-21T22:13:37.454Z,12.98
2023-01-21T22:16:05.036Z,12.40
2023-01-21T22:18:32.381Z,10.88
2023-01-21T22:21:04.247Z,14.15
2023-01-21T22:23:33.882Z,13.88
2023-01-21T22:26:09.358Z,14.00
2023-01-21T22:28:36.416Z,13.18
2023-01-21T22:31:08.734Z,14.02
2023-01-21T22:33:37.211Z,11.32
2023-01-21T22:36:06.162Z,13.40
2023-01-21T22:38:34.561Z,19.38
2023-01-21T22:41:02.143Z,14.35
2023-01-21T22:43:29.343Z,15.27
2023-01-21T22:45:57.900Z,16.25
2023-01-21T22:48:25.844Z,15.10
2023-01-21T22:50:55.409Z,14.57
2023-01-21T22:53:24.000Z,15.00
2023-01-21T22:56:05.273Z,17.00
2023-01-21T22:58:34.110Z,13.38
2023-01-21T23:01:02.215Z,15.25
2023-01-21T23:03:29.708Z,17.92
2023-01-21T23:06:07.471Z,15.43
2023-01-21T23:08:36.814Z,15.60
2023-01-21T23:11:05.607Z,15.05
2023-01-21T23:13:34.039Z,15.52
2023-01-21T23:16:01.243Z,15.35
2023-01-21T23:18:29.526Z,18.25
2023-01-21T23:20:56.910Z,17.52
2023-01-21T23:23:24.814Z,15.23
2023-01-21T23:25:51.860Z,15.07
2023-01-21T23:28:18.984Z,15.90
2023-01-21T23:30:46.193Z,17.63
2023-01-21T23:33:13.470Z,16.48
2023-01-21T23:35:40.579Z,16.90
2023-01-21T23:38:07.489Z,16.50
2023-01-21T23:40:34.489Z,16.38
2023-01-21T23:43:01.264Z,15.07
2023-01-21T23:45:28.086Z,12.93
2023-01-21T23:47:55.634Z,14.63
2023-01-21T23:50:22.639Z,12.02
2023-01-21T23:52:49.634Z,13.65
2023-01-21T23:55:16.698Z,12.95
2023-01-21T23:57:43.734Z,13.00
